Time;durP1;ratioP1;P1;durP2;ratioP2;P2;SDS_P1;SDS_P2;PMS_P1;PMS_P2;Temp;Humidity;BMP_temperature;BMP_pressure;BME280_temperature;BME280_humidity;BME280_pressure;Samples;Min_cycle;Max_cycle;Signal;HPM_P1;HPM_P2
2022/06/07 00:00:03;;;;;;;5.93;3.90;;;11.90;99.90;;;;;;5032897;28;20048;-77
2022/06/07 00:02:30;;;;;;;6.38;4.20;;;11.80;99.90;;;;;;5032126;28;20053;-76
2022/06/07 00:04:57;;;;;;;8.05;4.40;;;11.80;99.90;;;;;;5023752;28;20049;-77
2022/06/07 00:07:25;;;;;;;5.22;3.63;;;11.80;99.90;;;;;;5034763;28;20050;-77
2022/06/07 00:09:51;;;;;;;5.10;3.70;;;12.30;99.90;;;;;;5046116;28;20416;-77
2022/06/07 00:12:17;;;;;;;;;;;11.90;99.90;;;;;;5041029;28;20042;-77
2022/06/07 00:14:44;;;;;;;6.50;4.53;;;12.10;99.90;;;;;;5036065;28;19928;-77
2022/06/07 00:17:12;;;;;;;7.07;4.05;;;12.00;99.90;;;;;;5037075;28;20081;-77
2022/06/07 00:19:38;;;;;;;9.43;3.88;;;11.80;99.90;;;;;;5009810;28;20125;-77
2022/06/07 00:22:05;;;;;;;6.28;3.95;;;12.00;99.90;;;;;;5050463;28;20525;-77
2022/06/07 00:24:31;;;;;;;7.55;4.20;;;11.80;99.90;;;;;;5045634;28;20049;-77
2022/06/07 00:26:57;;;;;;;5.78;3.80;;;11.80;99.90;;;;;;5039350;28;20050;-78
2022/06/07 00:29:24;;;;;;;5.32;3.95;;;11.80;99.90;;;;;;5047431;28;20052;-76
2022/06/07 00:31:50;;;;;;;4.80;3.60;;;11.80;99.90;;;;;;5040994;28;20085;-77
2022/06/07 00:34:16;;;;;;;;;;;12.00;99.90;;;;;;5038711;28;20041;-77
2022/06/07 00:36:43;;;;;;;6.78;4.80;;;12.00;99.90;;;;;;5041529;28;19921;-77
2022/06/07 00:39:09;;;;;;;5.57;3.88;;;11.80;99.90;;;;;;5040121;28;20506;-77
2022/06/07 00:41:35;;;;;;;;;;;12.20;99.90;;;;;;5049475;28;20339;-77
2022/06/07 00:44:28;;;;;;;4.75;4.18;;;11.70;99.90;;;;;;5036131;28;19920;-77
2022/06/07 00:47:01;;;;;;;7.45;4.40;;;11.70;99.90;;;;;;5025260;28;20492;-77
2022/06/07 00:49:34;;;;;;;8.65;5.28;;;12.20;99.90;;;;;;5024043;28;20224;-78
2022/06/07 00:51:59;;;;;;;7.65;5.80;;;12.20;99.90;;;;;;5039625;28;20099;-77
2022/06/07 00:54:28;;;;;;;5.60;4.60;;;12.20;99.90;;;;;;5031981;28;20053;-77
2022/06/07 00:56:55;;;;;;;7.38;5.40;;;12.10;99.90;;;;;;5046511;28;20052;-77
2022/06/07 00:59:22;;;;;;;8.65;5.22;;;12.10;99.90;;;;;;5044130;28;20052;-76
2022/06/07 01:01:48;;;;;;;9.98;5.65;;;12.00;99.90;;;;;;5039722;28;20053;-76
2022/06/07 01:04:13;;;;;;;6.40;4.32;;;11.70;99.90;;;;;;5030246;28;20050;-77
2022/06/07 01:12:07;;;;;;;6.00;4.40;;;12.10;99.90;;;;;;5040134;28;20501;-77
2022/06/07 01:14:33;;;;;;;7.72;5.70;;;11.80;99.90;;;;;;5025853;28;20048;-77
2022/06/07 01:16:59;;;;;;;7.95;5.30;;;11.90;99.90;;;;;;5033646;28;20096;-77
2022/06/07 01:19:27;;;;;;;6.35;4.97;;;12.20;99.90;;;;;;5029939;28;20521;-77
2022/06/07 01:21:52;;;;;;;7.82;5.30;;;11.90;99.90;;;;;;5033660;28;20529;-78
2022/06/07 01:24:18;;;;;;;9.05;4.93;;;12.10;99.90;;;;;;5050746;28;20045;-77
2022/06/07 01:26:44;;;;;;;7.10;4.65;;;12.20;99.90;;;;;;5036039;28;20052;-77
2022/06/07 01:29:11;;;;;;;9.70;5.57;;;11.90;99.90;;;;;;5044442;28;20124;-78
2022/06/07 01:31:38;;;;;;;8.70;5.93;;;12.10;99.90;;;;;;5034446;28;20059;-77
2022/06/07 01:34:04;;;;;;;7.03;4.57;;;12.20;99.90;;;;;;5034861;28;20141;-78
2022/06/07 01:36:29;;;;;;;;;;;11.90;99.90;;;;;;5030576;28;20079;-78
2022/06/07 01:41:54;;;;;;;6.80;5.18;;;12.20;99.90;;;;;;5034128;28;20048;-77
2022/06/07 01:44:29;;;;;;;8.07;4.85;;;12.30;99.90;;;;;;5035636;28;20046;-78
2022/06/07 01:46:57;;;;;;;6.82;4.90;;;12.30;99.90;;;;;;5042634;28;20076;-77
2022/06/07 01:49:27;;;;;;;9.15;5.40;;;12.00;99.90;;;;;;5035672;28;20045;-77
2022/06/07 01:51:53;;;;;;;8.68;4.80;;;11.90;99.90;;;;;;5040161;28;20383;-78
2022/06/07 01:54:20;;;;;;;6.35;4.88;;;12.00;99.90;;;;;;5035313;28;20187;-77
2022/06/07 01:56:49;;;;;;;9.15;6.10;;;12.10;99.90;;;;;;5035662;28;20033;-77
2022/06/07 01:59:16;;;;;;;7.75;5.10;;;12.20;99.90;;;;;;5032929;28;20045;-77
2022/06/07 02:01:42;;;;;;;8.18;4.60;;;12.00;99.90;;;;;;5037646;28;20497;-78
2022/06/07 02:04:10;;;;;;;6.03;4.53;;;12.40;99.90;;;;;;5028497;28;20041;-77
2022/06/07 02:06:37;;;;;;;7.03;4.50;;;12.00;99.90;;;;;;5028023;28;20128;-78
2022/06/07 02:09:04;;;;;;;9.82;4.85;;;12.40;99.90;;;;;;5027494;28;20398;-78
2022/06/07 02:11:29;;;;;;;8.75;5.63;;;12.10;99.90;;;;;;5028620;28;20524;-77
2022/06/07 02:13:55;;;;;;;9.05;5.80;;;12.10;99.90;;;;;;5028437;28;20123;-78
2022/06/07 02:16:23;;;;;;;6.53;5.25;;;12.40;99.90;;;;;;5027757;28;20071;-77
2022/06/07 02:18:49;;;;;;;6.88;5.60;;;12.40;99.90;;;;;;5026136;28;20057;-78
2022/06/07 02:21:16;;;;;;;8.57;5.40;;;12.20;99.90;;;;;;5026540;28;20053;-77
2022/06/07 02:23:42;;;;;;;9.18;5.43;;;12.20;99.90;;;;;;5027624;28;20048;-78
2022/06/07 02:26:17;;;;;;;8.55;5.40;;;12.20;99.90;;;;;;5025568;28;20041;-77
2022/06/07 02:28:50;;;;;;;8.77;6.05;;;12.40;99.90;;;;;;5031959;28;20106;-77
2022/06/07 02:31:16;;;;;;;8.88;5.45;;;12.40;99.90;;;;;;5030240;28;20402;-77
2022/06/07 02:33:43;;;;;;;11.98;7.30;;;12.30;99.90;;;;;;5025084;28;20071;-77
2022/06/07 02:36:10;;;;;;;7.68;6.13;;;12.40;99.90;;;;;;5029002;28;20048;-77
2022/06/07 02:38:36;;;;;;;11.13;5.90;;;12.40;99.90;;;;;;5028088;28;20123;-78
2022/06/07 02:41:05;;;;;;;11.23;6.43;;;12.50;99.90;;;;;;5029540;28;20041;-77
2022/06/07 02:43:31;;;;;;;8.15;5.70;;;12.40;99.90;;;;;;5025287;28;20059;-77
2022/06/07 02:45:57;;;;;;;7.15;5.47;;;12.40;99.90;;;;;;5029587;28;20506;-78
2022/06/07 02:48:23;;;;;;;7.90;5.75;;;12.40;99.90;;;;;;5028200;28;20037;-78
2022/06/07 02:50:49;;;;;;;11.88;6.47;;;12.50;99.90;;;;;;5009435;28;20045;-76
2022/06/07 02:53:14;;;;;;;10.15;6.60;;;12.40;99.90;;;;;;5027060;28;20104;-78
2022/06/07 02:55:40;;;;;;;9.93;5.97;;;12.40;99.90;;;;;;5025649;28;20041;-77
2022/06/07 02:58:07;;;;;;;8.43;5.70;;;12.50;99.90;;;;;;5020759;28;20045;-77
2022/06/07 03:00:33;;;;;;;10.48;6.40;;;12.40;99.90;;;;;;5026938;28;20426;-77
2022/06/07 03:02:58;;;;;;;12.65;7.20;;;12.50;99.90;;;;;;5012012;28;20045;-77
2022/06/07 03:05:24;;;;;;;7.97;5.90;;;12.60;99.90;;;;;;5027304;28;20512;-78
2022/06/07 03:07:50;;;;;;;8.90;5.78;;;12.60;99.90;;;;;;5029271;28;20041;-77
2022/06/07 03:10:17;;;;;;;10.57;6.10;;;12.40;99.90;;;;;;5031541;28;20050;-77
2022/06/07 03:12:43;;;;;;;7.97;5.70;;;12.40;99.90;;;;;;5015120;28;20042;-77
2022/06/07 03:15:09;;;;;;;;;;;12.50;99.90;;;;;;5031720;28;20046;-76
2022/06/07 03:17:36;;;;;;;8.48;6.68;;;12.50;99.90;;;;;;5031032;28;19921;-77
2022/06/07 03:20:03;;;;;;;8.80;5.70;;;12.40;99.90;;;;;;5031920;28;20041;-77
2022/06/07 03:22:29;;;;;;;8.52;5.88;;;12.40;99.90;;;;;;5031591;28;20064;-78
2022/06/07 03:24:54;;;;;;;9.68;6.47;;;12.40;99.90;;;;;;5031432;28;20045;-77
2022/06/07 03:27:20;;;;;;;9.82;6.35;;;12.60;99.90;;;;;;5031577;28;20061;-77
2022/06/07 03:29:46;;;;;;;11.45;6.25;;;12.50;99.90;;;;;;5032012;28;20041;-77
2022/06/07 03:32:11;;;;;;;9.95;6.25;;;12.60;99.90;;;;;;5031832;28;20080;-76
2022/06/07 03:34:39;;;;;;;11.90;6.97;;;12.50;99.90;;;;;;5031703;28;20041;-77
2022/06/07 03:37:05;;;;;;;10.32;6.70;;;12.50;99.90;;;;;;5031813;28;20048;-77
2022/06/07 03:39:30;;;;;;;;;;;12.40;99.90;;;;;;5030336;28;20059;-76
2022/06/07 03:41:56;;;;;;;11.35;6.40;;;12.60;99.90;;;;;;5033956;28;19917;-76
2022/06/07 03:44:22;;;;;;;8.02;5.68;;;12.60;99.90;;;;;;5015185;28;20068;-77
2022/06/07 03:46:49;;;;;;;12.30;6.03;;;12.50;99.90;;;;;;5031672;28;20041;-77
2022/06/07 03:49:15;;;;;;;10.20;6.07;;;12.50;99.90;;;;;;5032325;28;20052;-77
2022/06/07 03:51:41;;;;;;;;;;;12.60;99.90;;;;;;5032673;28;20065;-77
2022/06/07 03:54:07;;;;;;;7.55;5.30;;;12.60;99.90;;;;;;5027382;28;19928;-77
2022/06/07 03:56:33;;;;;;;8.90;5.75;;;12.30;99.90;;;;;;5028194;28;20059;-77
2022/06/07 03:58:59;;;;;;;10.65;5.80;;;12.30;99.90;;;;;;5030145;28;20474;-75
2022/06/07 04:01:27;;;;;;;10.35;5.78;;;12.40;99.90;;;;;;4996514;28;20080;-76
2022/06/07 04:03:55;;;;;;;8.90;5.50;;;12.20;99.90;;;;;;5030511;28;20037;-77
2022/06/07 04:06:35;;;;;;;9.15;6.10;;;12.30;99.90;;;;;;5031965;28;20063;-77
2022/06/07 04:09:00;;;;;;;10.88;6.20;;;12.20;99.90;;;;;;5026023;28;20033;-76
2022/06/07 04:11:27;;;;;;;7.90;5.45;;;12.30;99.90;;;;;;5030324;28;20059;-76
2022/06/07 04:13:54;;;;;;;10.25;5.82;;;12.20;99.90;;;;;;5031043;28;20100;-76
2022/06/07 04:16:23;;;;;;;7.93;4.78;;;12.00;99.90;;;;;;5032539;28;20045;-77
2022/06/07 04:18:49;;;;;;;8.38;5.00;;;11.90;99.90;;;;;;5025727;28;20048;-76
2022/06/07 04:21:16;;;;;;;7.15;4.35;;;12.00;99.90;;;;;;5015366;28;20053;-77
2022/06/07 04:23:42;;;;;;;9.40;4.90;;;11.90;99.90;;;;;;5031329;28;20092;-76
2022/06/07 04:26:14;;;;;;;8.27;5.07;;;12.10;99.90;;;;;;5029565;28;20052;-76
2022/06/07 04:28:40;;;;;;;7.90;4.80;;;11.80;99.90;;;;;;5028269;28;20179;-76
2022/06/07 04:31:14;;;;;;;;;;;11.70;99.90;;;;;;5029118;28;20057;-77
2022/06/07 04:33:40;;;;;;;7.20;5.10;;;11.80;99.90;;;;;;5029806;28;19928;-76
2022/06/07 04:36:15;;;;;;;7.28;4.45;;;11.60;99.90;;;;;;5030672;28;20049;-77
2022/06/07 04:38:41;;;;;;;5.82;4.13;;;11.50;99.90;;;;;;5024863;28;20037;-77
2022/06/07 04:41:09;;;;;;;6.47;4.10;;;11.80;99.90;;;;;;5030709;28;20490;-77
2022/06/07 04:43:35;;;;;;;7.30;4.03;;;11.50;99.90;;;;;;5030426;28;20386;-77
2022/06/07 04:46:06;;;;;;;6.68;3.92;;;11.50;99.90;;;;;;5012976;28;20049;-77
2022/06/07 04:48:32;;;;;;;7.40;4.03;;;11.70;99.90;;;;;;5029280;28;20123;-77
2022/06/07 04:51:07;;;;;;;4.63;3.67;;;11.50;99.90;;;;;;5029593;28;20124;-77
2022/06/07 04:53:33;;;;;;;7.25;4.10;;;11.70;99.90;;;;;;5027349;28;20095;-77
2022/06/07 04:56:00;;;;;;;8.10;4.20;;;11.50;99.90;;;;;;5030474;28;20049;-77
2022/06/07 04:58:26;;;;;;;5.88;3.90;;;11.50;99.90;;;;;;5020860;28;20050;-76
2022/06/07 05:00:52;;;;;;;8.20;4.50;;;11.60;99.90;;;;;;5020790;28;20046;-77
2022/06/07 05:03:17;;;;;;;7.80;4.22;;;11.60;99.90;;;;;;5000955;28;20060;-79
2022/06/07 05:05:43;;;;;;;7.50;4.20;;;11.80;99.90;;;;;;5011179;28;20053;-78
2022/06/07 05:08:09;;;;;;;6.53;4.50;;;11.70;99.90;;;;;;5023968;28;20073;-78
2022/06/07 05:10:34;;;;;;;8.07;4.68;;;11.90;99.90;;;;;;5012003;28;20131;-78
2022/06/07 05:13:00;;;;;;;8.15;4.07;;;11.80;99.90;;;;;;5021324;28;20048;-77
2022/06/07 05:15:27;;;;;;;8.07;4.57;;;11.80;99.90;;;;;;5025534;28;20193;-77
2022/06/07 05:17:53;;;;;;;7.28;4.47;;;11.90;99.90;;;;;;5028047;28;20037;-78
2022/06/07 05:20:18;;;;;;;7.05;4.53;;;12.20;99.90;;;;;;5023837;28;20068;-78
2022/06/07 05:22:44;;;;;;;7.80;4.18;;;12.20;99.90;;;;;;5017568;28;20171;-77
2022/06/07 05:25:10;;;;;;;7.93;4.78;;;12.20;99.90;;;;;;5023128;28;20060;-78
2022/06/07 05:27:40;;;;;;;10.13;5.30;;;12.00;99.90;;;;;;5028233;28;20080;-77
2022/06/07 05:30:10;;;;;;;8.10;4.90;;;12.10;99.90;;;;;;5026323;28;20513;-78
2022/06/07 05:32:36;;;;;;;8.07;4.82;;;12.00;99.90;;;;;;5022711;28;20045;-78
2022/06/07 05:35:05;;;;;;;9.35;4.82;;;12.00;99.90;;;;;;5027263;28;20052;-77
2022/06/07 05:37:31;;;;;;;7.30;4.22;;;12.00;99.90;;;;;;5029611;28;20037;-77
2022/06/07 05:39:57;;;;;;;6.93;5.10;;;12.20;99.90;;;;;;5028010;28;20112;-77
2022/06/07 05:42:23;;;;;;;;;;;12.10;99.90;;;;;;5028692;28;20092;-77
2022/06/07 05:44:48;;;;;;;9.18;4.32;;;12.20;99.90;;;;;;5029752;28;20000;-76
2022/06/07 05:47:14;;;;;;;7.55;3.67;;;12.30;99.90;;;;;;5020699;28;20128;-77
2022/06/07 05:49:40;;;;;;;5.38;3.60;;;12.30;99.90;;;;;;5029529;28;20363;-78
2022/06/07 05:52:07;;;;;;;6.20;4.15;;;12.30;99.90;;;;;;5036515;28;20049;-77
2022/06/07 05:54:34;;;;;;;9.43;4.00;;;12.20;99.90;;;;;;5019887;28;20037;-77
2022/06/07 05:57:01;;;;;;;5.50;3.97;;;12.30;99.90;;;;;;5029853;28;20056;-78
2022/06/07 05:59:27;;;;;;;6.18;3.63;;;12.30;99.90;;;;;;5026989;28;20045;-77
2022/06/07 06:01:53;;;;;;;7.28;3.30;;;12.20;99.90;;;;;;5038155;28;20042;-77
2022/06/07 06:04:19;;;;;;;5.85;3.50;;;12.20;99.90;;;;;;5040501;28;20051;-78
2022/06/07 06:06:45;;;;;;;;;;;12.10;99.90;;;;;;5027161;28;20168;-77
2022/06/07 06:11:55;;;;;;;5.82;2.60;;;11.80;99.90;;;;;;5027449;28;20068;-78
2022/06/07 06:14:21;;;;;;;7.10;3.30;;;12.00;99.90;;;;;;5025251;28;20390;-78
2022/06/07 06:16:47;;;;;;;5.47;2.70;;;11.80;99.90;;;;;;5026139;28;20486;-78
2022/06/07 06:19:13;;;;;;;4.78;2.55;;;11.70;99.90;;;;;;5012328;28;20463;-78
2022/06/07 06:21:42;;;;;;;6.85;2.78;;;11.80;99.90;;;;;;5028188;28;20065;-78
2022/06/07 06:24:11;;;;;;;5.75;2.58;;;11.60;99.90;;;;;;5023410;28;20065;-78
2022/06/07 06:26:38;;;;;;;5.57;2.38;;;11.20;99.90;;;;;;5017358;28;20045;-78
2022/06/07 06:29:05;;;;;;;5.88;2.40;;;11.50;99.90;;;;;;5021445;28;20045;-78
2022/06/07 06:31:30;;;;;;;4.55;2.50;;;11.60;99.90;;;;;;5002503;28;20041;-78
2022/06/07 06:33:56;;;;;;;5.10;2.60;;;11.40;99.90;;;;;;5021390;28;20050;-77
2022/06/07 06:36:25;;;;;;;4.70;2.38;;;11.20;99.90;;;;;;5022024;28;20044;-77
2022/06/07 06:38:51;;;;;;;3.80;2.05;;;11.70;99.90;;;;;;5026623;28;20033;-78
2022/06/07 06:41:20;;;;;;;3.75;2.30;;;11.30;99.90;;;;;;5023788;28;20041;-78
2022/06/07 06:43:47;;;;;;;5.10;1.75;;;11.80;99.90;;;;;;5027811;28;20479;-78
2022/06/07 06:46:22;;;;;;;4.15;1.70;;;11.40;99.90;;;;;;5025558;28;20120;-77
2022/06/07 06:48:48;;;;;;;4.80;1.88;;;11.50;99.90;;;;;;5026605;28;20037;-77
2022/06/07 06:51:16;;;;;;;3.42;1.70;;;11.30;99.90;;;;;;5022645;28;20520;-77
2022/06/07 06:53:42;;;;;;;3.08;1.70;;;11.90;99.90;;;;;;5024616;28;20549;-77
2022/06/07 06:56:11;;;;;;;3.15;1.90;;;11.50;99.90;;;;;;5027398;28;20053;-77
2022/06/07 06:58:37;;;;;;;4.22;1.83;;;12.00;99.90;;;;;;5022393;28;20045;-77
2022/06/07 07:01:05;;;;;;;3.80;1.50;;;11.60;99.90;;;;;;5023414;28;20121;-77
2022/06/07 07:03:31;;;;;;;4.75;1.40;;;11.60;99.90;;;;;;5021824;28;20080;-77
2022/06/07 07:05:57;;;;;;;3.33;1.20;;;11.70;99.90;;;;;;5007219;28;20072;-77
2022/06/07 07:08:24;;;;;;;3.38;1.30;;;12.00;99.90;;;;;;5023171;28;20079;-77
2022/06/07 07:11:01;;;;;;;3.35;1.20;;;11.90;99.90;;;;;;5014787;28;20132;-78
2022/06/07 07:13:29;;;;;;;3.78;1.40;;;12.00;99.90;;;;;;5005330;28;20104;-77
2022/06/07 07:15:54;;;;;;;5.07;1.42;;;11.80;99.90;;;;;;5013737;28;20033;-77
2022/06/07 07:18:20;;;;;;;3.05;1.00;;;12.10;99.90;;;;;;5008344;28;20057;-77
2022/06/07 07:20:46;;;;;;;3.75;1.13;;;12.30;99.90;;;;;;5016443;28;20050;-76
2022/06/07 07:23:11;;;;;;;5.40;1.40;;;11.90;99.90;;;;;;5024925;28;20077;-77
2022/06/07 07:25:37;;;;;;;5.43;1.48;;;12.00;99.90;;;;;;5022351;28;20121;-77
2022/06/07 07:28:04;;;;;;;2.58;1.17;;;12.20;99.90;;;;;;5000031;28;20041;-77
2022/06/07 07:30:29;;;;;;;5.15;1.30;;;12.20;99.90;;;;;;5018490;28;20053;-77
2022/06/07 07:32:56;;;;;;;4.47;1.17;;;12.30;99.90;;;;;;5019315;28;20094;-76
2022/06/07 07:35:23;;;;;;;7.43;1.58;;;12.60;99.90;;;;;;5031410;28;20041;-77
2022/06/07 07:37:49;;;;;;;6.95;1.50;;;12.40;99.90;;;;;;5021946;28;20124;-76
2022/06/07 07:40:15;;;;;;;6.85;1.40;;;12.50;99.90;;;;;;5027533;28;20128;-77
2022/06/07 07:42:41;;;;;;;5.10;1.40;;;12.80;99.90;;;;;;5028553;28;20136;-77
2022/06/07 07:45:08;;;;;;;3.70;1.38;;;12.90;99.90;;;;;;5025062;28;20045;-77
2022/06/07 07:47:35;;;;;;;3.85;1.20;;;12.80;99.90;;;;;;5006436;28;20081;-77
2022/06/07 07:50:00;;;;;;;7.03;1.60;;;12.70;99.90;;;;;;5006389;28;20124;-76
2022/06/07 07:52:27;;;;;;;3.25;1.08;;;12.80;99.90;;;;;;5020026;28;20195;-76
2022/06/07 07:54:53;;;;;;;4.85;1.63;;;12.80;99.90;;;;;;5025171;28;20041;-76
2022/06/07 07:57:18;;;;;;;6.60;1.40;;;12.60;99.90;;;;;;5024320;28;20041;-76
2022/06/07 07:59:45;;;;;;;4.65;1.00;;;12.60;99.90;;;;;;5025479;28;20033;-77
2022/06/07 08:02:19;;;;;;;5.05;1.23;;;12.50;99.90;;;;;;5023232;28;20402;-77
2022/06/07 08:04:45;;;;;;;6.75;1.63;;;12.60;99.90;;;;;;5025261;28;20120;-76
2022/06/07 08:07:11;;;;;;;6.55;1.50;;;12.60;99.90;;;;;;5027037;28;20173;-77
2022/06/07 08:09:36;;;;;;;5.18;1.35;;;12.50;99.90;;;;;;5022643;28;20037;-77
2022/06/07 08:12:05;;;;;;;6.18;1.17;;;12.60;99.90;;;;;;5021146;28;20041;-76
2022/06/07 08:14:33;;;;;;;4.88;1.33;;;12.60;99.90;;;;;;5022755;28;20248;-77
2022/06/07 08:16:59;;;;;;;4.85;1.30;;;12.50;99.90;;;;;;5026346;28;20044;-76
2022/06/07 08:19:26;;;;;;;5.90;1.20;;;12.60;99.90;;;;;;5025408;28;20048;-76
2022/06/07 08:21:52;;;;;;;5.15;1.40;;;12.70;99.90;;;;;;5023191;28;20060;-75
2022/06/07 08:24:18;;;;;;;6.18;1.63;;;13.00;99.90;;;;;;5025459;28;20383;-77
2022/06/07 08:26:46;;;;;;;;;;;12.80;99.90;;;;;;5025342;28;20049;-76
2022/06/07 08:29:12;;;;;;;5.47;1.38;;;13.10;99.90;;;;;;5025222;28;19917;-77
2022/06/07 08:31:39;;;;;;;5.95;1.25;;;13.00;99.90;;;;;;5022915;28;20045;-77
2022/06/07 08:39:35;;;;;;;5.10;1.23;;;13.40;99.90;;;;;;5028853;28;20041;-77
2022/06/07 08:42:01;;;;;;;6.70;1.67;;;13.50;99.90;;;;;;5027726;28;20103;-76
2022/06/07 08:44:38;;;;;;;6.45;1.70;;;13.60;99.90;;;;;;5027899;28;20041;-77
2022/06/07 08:47:19;;;;;;;4.68;1.20;;;13.60;99.90;;;;;;5026710;28;20058;-77
2022/06/07 08:49:46;;;;;;;3.72;1.20;;;13.80;99.90;;;;;;5028656;28;20124;-75
2022/06/07 08:52:38;;;;;;;7.25;1.70;;;14.10;99.90;;;;;;5027475;28;20135;-77
2022/06/07 08:55:32;;;;;;;5.57;1.40;;;14.20;99.90;;;;;;5024980;28;20090;-77
2022/06/07 08:58:16;;;;;;;5.38;1.42;;;14.20;99.90;;;;;;5028769;28;20045;-77
2022/06/07 09:00:48;;;;;;;6.22;1.33;;;14.20;99.90;;;;;;5022094;28;20037;-78
2022/06/07 09:03:55;;;;;;;5.65;1.40;;;14.10;99.90;;;;;;5022451;28;20076;-76
2022/06/07 09:06:24;;;;;;;5.82;1.50;;;14.40;99.90;;;;;;5020594;28;20045;-77
2022/06/07 09:08:58;;;;;;;5.40;1.45;;;14.60;99.90;;;;;;5022324;28;20088;-77
2022/06/07 09:14:50;;;;;;;7.60;1.58;;;14.70;99.90;;;;;;5019639;28;20050;-68
2022/06/07 09:17:29;;;;;;;8.38;1.35;;;14.70;99.90;;;;;;5020236;28;20072;-68
2022/06/07 09:19:55;;;;;;;5.38;1.30;;;14.70;99.90;;;;;;5018519;28;20057;-68
2022/06/07 09:22:37;;;;;;;7.13;1.40;;;14.70;99.90;;;;;;5025394;28;20065;-69
2022/06/07 09:25:11;;;;;;;5.60;1.42;;;14.60;99.90;;;;;;5023441;28;20107;-70
2022/06/07 09:27:37;;;;;;;5.60;1.30;;;14.30;99.90;;;;;;5021190;28;20056;-68
2022/06/07 09:30:24;;;;;;;6.45;1.58;;;14.20;99.90;;;;;;5023949;28;20045;-69
2022/06/07 09:32:51;;;;;;;;;;;14.10;99.90;;;;;;5022499;28;20045;-68
2022/06/07 09:35:43;;;;;;;7.77;1.60;;;14.00;99.90;;;;;;5025045;28;20381;-68
2022/06/07 09:38:21;;;;;;;4.35;1.15;;;13.90;99.90;;;;;;5021676;28;20060;-68
2022/06/07 09:40:56;;;;;;;6.65;1.42;;;13.80;99.90;;;;;;5016201;28;20726;-69
2022/06/07 09:43:39;;;;;;;8.32;1.60;;;13.70;99.90;;;;;;5024702;28;20048;-69
2022/06/07 09:46:10;;;;;;;5.38;1.33;;;13.70;99.90;;;;;;5025074;28;20148;-69
2022/06/07 09:48:39;;;;;;;7.47;1.60;;;13.50;99.90;;;;;;5024833;28;20037;-68
2022/06/07 09:51:19;;;;;;;5.60;1.40;;;13.50;99.90;;;;;;5024929;28;20045;-69
2022/06/07 09:54:04;;;;;;;5.70;1.33;;;13.50;99.90;;;;;;5008997;28;20041;-69
2022/06/07 09:56:30;;;;;;;7.82;1.42;;;13.60;99.90;;;;;;5024794;28;20041;-69
2022/06/07 09:59:27;;;;;;;5.80;1.33;;;13.60;99.90;;;;;;5024505;28;20052;-69
2022/06/07 10:02:40;;;;;;;6.40;1.00;;;13.70;99.90;;;;;;5034330;28;20088;-68
2022/06/07 10:05:26;;;;;;;5.95;1.60;;;14.00;99.90;;;;;;5020014;28;20041;-68
2022/06/07 10:08:18;;;;;;;6.60;1.42;;;14.10;99.90;;;;;;5020628;28;20049;-69
2022/06/07 10:11:04;;;;;;;7.03;1.50;;;14.20;99.90;;;;;;5014591;28;20397;-68
2022/06/07 10:14:04;;;;;;;7.65;1.52;;;14.10;99.90;;;;;;5016396;28;20045;-69
2022/06/07 10:16:35;;;;;;;4.55;1.15;;;14.10;99.90;;;;;;5004892;28;20083;-69
2022/06/07 10:19:25;;;;;;;4.75;1.25;;;14.20;99.90;;;;;;5023542;28;20029;-69
2022/06/07 10:22:02;;;;;;;3.65;1.20;;;14.30;99.90;;;;;;5022599;28;20151;-69
2022/06/07 10:24:58;;;;;;;4.80;1.17;;;14.30;99.90;;;;;;5022726;28;20045;-69
2022/06/07 10:27:44;;;;;;;4.32;1.50;;;14.50;99.90;;;;;;5022338;28;20156;-68
2022/06/07 10:30:24;;;;;;;5.53;1.30;;;14.50;99.90;;;;;;5023141;28;20122;-69
2022/06/07 10:33:04;;;;;;;4.60;1.00;;;14.50;99.90;;;;;;5021431;28;20049;-69
2022/06/07 10:35:42;;;;;;;5.93;1.25;;;14.50;99.90;;;;;;5019584;28;20029;-69
2022/06/07 10:38:39;;;;;;;7.55;1.40;;;14.30;99.90;;;;;;5020432;28;20379;-69
2022/06/07 10:41:25;;;;;;;4.60;0.90;;;14.40;99.90;;;;;;5023373;28;20092;-69
2022/06/07 10:44:15;;;;;;;4.72;1.13;;;14.40;99.90;;;;;;5025667;28;20045;-68
2022/06/07 10:46:43;;;;;;;4.22;0.85;;;14.50;99.90;;;;;;5022086;28;20131;-68
2022/06/07 10:49:21;;;;;;;3.15;0.80;;;14.50;99.90;;;;;;5022068;28;20469;-69
2022/06/07 10:54:57;;;;;;;5.10;1.00;;;14.50;99.90;;;;;;5019787;28;20103;-69
2022/06/07 10:57:34;;;;;;;5.70;1.10;;;14.40;99.90;;;;;;5021448;28;20474;-69
2022/06/07 11:00:17;;;;;;;3.83;0.98;;;14.30;99.90;;;;;;5023682;28;20052;-69
2022/06/07 11:02:59;;;;;;;4.32;1.00;;;14.30;99.90;;;;;;5025326;28;20048;-69
2022/06/07 11:11:15;;;;;;;3.08;1.27;;;14.60;99.90;;;;;;5022495;28;20124;-70
2022/06/07 11:13:48;;;;;;;6.18;1.23;;;14.70;99.90;;;;;;5006638;28;20037;-70
2022/06/07 11:16:17;;;;;;;5.28;1.20;;;14.80;99.90;;;;;;5024184;28;20053;-70
2022/06/07 11:18:43;;;;;;;5.85;1.10;;;14.90;99.90;;;;;;5026101;28;20720;-70
2022/06/07 11:21:34;;;;;;;5.68;1.17;;;15.10;99.90;;;;;;5029012;28;20129;-70
2022/06/07 11:24:02;;;;;;;4.95;1.20;;;15.10;99.90;;;;;;5019906;28;20054;-70
2022/06/07 11:26:37;;;;;;;5.10;1.00;;;15.40;99.90;;;;;;5008845;28;20129;-69
2022/06/07 11:29:07;;;;;;;2.92;0.90;;;15.40;99.90;;;;;;5024113;28;20041;-69
2022/06/07 11:31:33;;;;;;;4.57;1.35;;;15.50;99.90;;;;;;5027633;28;20041;-69
2022/06/07 11:34:11;;;;;;;1.73;0.88;;;15.50;99.90;;;;;;5022524;28;20139;-69
2022/06/07 11:36:42;;;;;;;5.53;1.15;;;15.50;99.90;;;;;;5031091;28;20088;-69
2022/06/07 11:39:45;;;;;;;4.68;0.90;;;15.50;99.90;;;;;;5027431;28;20050;-70
2022/06/07 11:42:15;;;;;;;5.10;0.93;;;15.80;99.90;;;;;;5016590;28;20053;-70
2022/06/07 11:44:45;;;;;;;3.25;0.90;;;15.80;99.90;;;;;;5027104;28;20430;-70
2022/06/07 11:47:11;;;;;;;3.40;0.85;;;15.80;99.90;;;;;;5023525;28;20128;-69
2022/06/07 11:49:44;;;;;;;2.13;0.90;;;16.20;99.90;;;;;;5025435;28;20457;-70
2022/06/07 11:52:12;;;;;;;3.67;0.80;;;16.40;99.90;;;;;;5024426;28;20042;-70
2022/06/07 11:54:54;;;;;;;3.55;0.90;;;16.60;99.90;;;;;;5023807;28;20045;-70
2022/06/07 11:57:31;;;;;;;2.42;0.77;;;16.90;99.90;;;;;;5009104;28;20037;-70
2022/06/07 12:00:22;;;;;;;4.30;1.20;;;16.90;99.90;;;;;;5027371;28;20037;-69
2022/06/07 12:02:56;;;;;;;2.83;0.82;;;17.00;99.90;;;;;;5009799;28;20059;-70
2022/06/07 12:05:28;;;;;;;3.58;0.80;;;17.00;99.90;;;;;;5025709;28;20037;-70
2022/06/07 12:07:54;;;;;;;2.42;1.05;;;16.70;99.90;;;;;;5026496;28;20421;-70
2022/06/07 12:10:19;;;;;;;4.03;1.17;;;16.90;99.90;;;;;;5025629;28;20052;-70
2022/06/07 12:16:20;;;;;;;4.20;0.90;;;17.00;99.90;;;;;;4949043;28;20129;-69
2022/06/07 12:18:54;;;;;;;3.30;0.90;;;16.90;99.90;;;;;;4940787;28;20075;-70
2022/06/07 12:21:21;;;;;;;4.13;0.90;;;17.20;99.90;;;;;;5002982;28;20080;-70
2022/06/07 12:23:49;;;;;;;4.53;1.10;;;17.20;99.90;;;;;;5024597;28;20049;-70
2022/06/07 12:26:34;;;;;;;5.57;1.10;;;17.20;99.90;;;;;;5023158;28;20103;-69
2022/06/07 12:29:01;;;;;;;6.45;1.20;;;16.90;99.90;;;;;;5025672;28;20440;-70
2022/06/07 12:31:29;;;;;;;3.83;0.82;;;16.80;99.90;;;;;;5022152;28;20103;-69
2022/06/07 12:34:01;;;;;;;4.18;1.23;;;16.80;99.90;;;;;;5027551;28;20046;-71
2022/06/07 12:36:39;;;;;;;5.95;1.42;;;16.50;99.90;;;;;;5026637;28;20041;-71
2022/06/07 12:39:13;;;;;;;5.65;1.30;;;16.40;99.90;;;;;;5021835;28;20140;-71
2022/06/07 12:41:52;;;;;;;3.13;1.10;;;16.40;99.90;;;;;;5026034;28;20431;-71
2022/06/07 12:44:43;;;;;;;3.50;1.10;;;16.40;99.90;;;;;;5029992;28;20123;-71
2022/06/07 12:47:34;;;;;;;5.93;1.23;;;16.30;99.90;;;;;;5008244;28;20049;-68
2022/06/07 12:50:01;;;;;;;4.80;1.30;;;16.10;99.90;;;;;;5020917;28;20124;-70
2022/06/07 12:52:29;;;;;;;3.78;1.10;;;15.90;99.90;;;;;;5026256;28;20060;-71
2022/06/07 12:55:10;;;;;;;3.97;1.10;;;15.90;99.90;;;;;;5024764;28;20045;-71
2022/06/07 12:58:09;;;;;;;4.95;1.00;;;15.90;99.90;;;;;;5024416;28;20521;-68
2022/06/07 13:00:44;;;;;;;5.03;1.30;;;15.90;99.90;;;;;;5015203;28;20132;-72
2022/06/07 13:03:22;;;;;;;5.32;1.10;;;15.90;99.90;;;;;;5023905;28;20049;-69
2022/06/07 13:05:57;;;;;;;3.10;1.08;;;16.10;99.90;;;;;;5019589;28;20049;-69
2022/06/07 13:08:26;;;;;;;6.82;1.05;;;16.70;99.90;;;;;;5021035;28;20084;-69
2022/06/07 13:10:52;;;;;;;4.60;1.08;;;17.00;99.90;;;;;;5024689;28;20087;-68
2022/06/07 13:13:27;;;;;;;3.53;1.05;;;17.00;99.90;;;;;;5022556;28;20053;-68
2022/06/07 13:16:01;;;;;;;5.07;1.10;;;17.30;99.90;;;;;;5021804;28;20038;-71
2022/06/07 13:18:31;;;;;;;3.85;0.90;;;17.40;99.90;;;;;;5022277;28;20402;-69
2022/06/07 13:21:38;;;;;;;3.10;0.90;;;17.40;99.90;;;;;;5007750;28;20192;-69
2022/06/07 13:24:05;;;;;;;3.55;0.70;;;17.40;99.90;;;;;;5000725;28;20060;-68
2022/06/07 13:26:33;;;;;;;5.03;1.30;;;17.30;99.90;;;;;;5023036;28;20074;-68
2022/06/07 13:29:01;;;;;;;4.10;1.10;;;17.00;99.90;;;;;;5026861;28;20103;-71
2022/06/07 13:31:29;;;;;;;5.57;1.17;;;16.80;99.90;;;;;;5029146;28;20045;-71
2022/06/07 13:34:01;;;;;;;4.53;1.10;;;16.60;99.90;;;;;;5022401;28;20041;-69
2022/06/07 13:36:39;;;;;;;4.20;1.20;;;16.50;99.90;;;;;;5027921;28;20053;-69
2022/06/07 13:39:17;;;;;;;4.60;1.45;;;16.40;99.90;;;;;;5013009;28;20049;-69